Time;durP1;ratioP1;P1;durP2;ratioP2;P2;SDS_P1;SDS_P2;PMS_P1;PMS_P2;Temp;Humidity;BMP_temperature;BMP_pressure;BME280_temperature;BME280_humidity;BME280_pressure;Samples;Min_cycle;Max_cycle;Signal;HPM_P1;HPM_P2
2021/05/23 00:01:37;;;;;;;;;;;;;;;14.63;60.21;95069.16;5027555;28;19925;-81
2021/05/23 00:04:03;;;;;;;;;;;;;;;14.61;60.22;95066.78;5045673;28;20007;-81
2021/05/23 00:06:28;;;;;;;;;;;;;;;14.63;59.95;95074.38;5042219;28;19956;-81
2021/05/23 00:08:54;;;;;;;;;;;;;;;14.61;60.50;95079.09;5027749;28;19925;-81
2021/05/23 00:11:19;;;;;;;;;;;;;;;14.58;60.26;95079.59;5026179;28;19968;-82
2021/05/23 00:13:45;;;;;;;;;;;;;;;14.55;60.42;95069.63;5044557;28;19944;-81
2021/05/23 00:16:12;;;;;;;;;;;;;;;14.50;60.38;95074.81;5027882;28;19920;-82
2021/05/23 00:18:38;;;;;;;;;;;;;;;14.44;60.66;95073.97;5023483;28;20007;-82
2021/05/23 00:21:04;;;;;;;;;;;;;;;14.49;61.11;95081.09;5009545;28;19940;-82
2021/05/23 00:26:04;;;;;;;;;;;;;;;14.38;60.72;95075.75;5184340;22;19947;-82
2021/05/23 00:28:30;;;;;;;;;;;;;;;14.40;61.02;95078.91;5029977;28;19925;-82
2021/05/23 00:30:56;;;;;;;;;;;;;;;14.41;61.15;95075.25;5052000;28;19942;-80
2021/05/23 00:33:21;;;;;;;;;;;;;;;14.36;60.99;95075.19;5037816;28;19980;-80
2021/05/23 00:35:46;;;;;;;;;;;;;;;14.28;61.21;95073.03;5072937;28;19980;-81
2021/05/23 00:38:12;;;;;;;;;;;;;;;14.30;60.96;95072.78;5043781;28;19929;-81
2021/05/23 00:40:37;;;;;;;;;;;;;;;14.28;61.34;95080.09;5048951;28;19925;-82
2021/05/23 00:43:06;;;;;;;;;;;;;;;14.26;61.35;95075.09;5023523;28;19968;-81
2021/05/23 00:45:32;;;;;;;;;;;;;;;14.23;61.54;95083.44;5056091;28;19943;-81
2021/05/23 00:47:58;;;;;;;;;;;;;;;14.20;61.76;95081.34;5055968;28;19928;-82
2021/05/23 00:50:23;;;;;;;;;;;;;;;14.18;61.47;95088.63;5057082;28;19920;-80
2021/05/23 00:52:49;;;;;;;;;;;;;;;14.15;61.04;95086.50;5167965;22;19919;-81
2021/05/23 00:55:14;;;;;;;;;;;;;;;14.15;61.08;95094.34;5059005;28;19991;-83
2021/05/23 01:00:34;;;;;;;;;;;;;;;14.09;61.51;95092.72;5045449;22;19944;-84
2021/05/23 01:02:59;;;;;;;;;;;;;;;14.04;61.91;95077.00;5044195;23;19925;-82
2021/05/23 01:05:24;;;;;;;;;;;;;;;14.04;61.82;95075.16;5047719;28;19971;-82
2021/05/23 01:07:50;;;;;;;;;;;;;;;14.03;61.38;95078.03;5049066;28;19924;-82
2021/05/23 01:10:16;;;;;;;;;;;;;;;14.02;61.29;95079.06;5054460;28;20385;-81
2021/05/23 01:12:54;;;;;;;;;;;;;;;14.04;61.24;95092.69;5057019;22;19987;-82
2021/05/23 01:15:33;;;;;;;;;;;;;;;13.98;61.48;95096.25;5034915;28;19921;-82
2021/05/23 01:17:59;;;;;;;;;;;;;;;13.96;61.80;95093.09;4995160;28;19921;-82
2021/05/23 01:20:26;;;;;;;;;;;;;;;13.88;62.77;95096.16;4991320;28;19929;-82
2021/05/23 01:22:56;;;;;;;;;;;;;;;13.87;62.41;95084.13;5035210;28;20032;-81
2021/05/23 01:25:22;;;;;;;;;;;;;;;13.87;62.64;95076.28;5035615;28;19928;-82
2021/05/23 01:27:48;;;;;;;;;;;;;;;13.84;62.07;95074.97;5017307;28;19925;-81
2021/05/23 01:30:15;;;;;;;;;;;;;;;13.85;61.49;95068.69;4993451;28;19922;-82
2021/05/23 01:32:41;;;;;;;;;;;;;;;13.82;61.90;95069.94;5010025;28;19956;-82
2021/05/23 01:35:07;;;;;;;;;;;;;;;13.79;62.00;95073.06;4992088;28;19925;-81
2021/05/23 01:37:33;;;;;;;;;;;;;;;13.75;62.20;95087.66;5017672;28;19974;-81
2021/05/23 01:39:58;;;;;;;;;;;;;;;13.72;62.14;95088.16;5016984;28;19932;-81
2021/05/23 01:42:23;;;;;;;;;;;;;;;13.71;61.89;95086.56;5037120;23;19925;-81
2021/05/23 01:44:48;;;;;;;;;;;;;;;13.67;61.87;95085.50;5031819;28;19924;-81
2021/05/23 01:47:14;;;;;;;;;;;;;;;13.63;61.99;95094.03;5073933;22;19929;-82
2021/05/23 01:49:39;;;;;;;;;;;;;;;13.57;62.50;95093.19;5003814;28;19921;-81
2021/05/23 01:54:32;;;;;;;;;;;;;;;13.54;62.37;95100.75;5051356;23;20393;-82
2021/05/23 01:56:58;;;;;;;;;;;;;;;13.49;62.40;95091.00;5007718;28;19979;-82
2021/05/23 01:59:23;;;;;;;;;;;;;;;13.49;62.64;95096.22;5007992;28;20301;-82
2021/05/23 02:01:48;;;;;;;;;;;;;;;13.47;62.38;95096.47;4992385;28;19997;-82
2021/05/23 02:04:14;;;;;;;;;;;;;;;13.42;62.55;95093.00;5015288;28;19917;-82
2021/05/23 02:06:39;;;;;;;;;;;;;;;13.42;62.77;95096.41;5008556;28;20017;-81
2021/05/23 02:09:04;;;;;;;;;;;;;;;13.41;62.91;95096.66;5003243;28;19972;-82
2021/05/23 02:11:30;;;;;;;;;;;;;;;13.40;63.01;95108.13;5004164;28;20340;-82
2021/05/23 02:13:55;;;;;;;;;;;;;;;13.34;63.10;95111.69;4986574;28;19978;-82
2021/05/23 02:16:21;;;;;;;;;;;;;;;13.34;63.16;95102.06;5024552;28;19932;-82
2021/05/23 02:18:46;;;;;;;;;;;;;;;13.30;63.69;95100.16;4990247;28;20006;-82
2021/05/23 02:21:12;;;;;;;;;;;;;;;13.30;63.62;95095.72;5016414;28;19980;-82
2021/05/23 02:23:37;;;;;;;;;;;;;;;13.26;63.51;95099.06;5008526;28;20040;-81
2021/05/23 02:26:02;;;;;;;;;;;;;;;13.28;63.38;95081.34;5051420;23;19925;-82
2021/05/23 02:30:55;;;;;;;;;;;;;;;13.23;63.55;95104.78;5111179;22;19926;-82
2021/05/23 02:33:20;;;;;;;;;;;;;;;13.17;63.87;95104.66;5053052;28;19968;-81
2021/05/23 02:35:46;;;;;;;;;;;;;;;13.19;63.88;95110.47;4995891;28;19972;-81
2021/05/23 02:38:13;;;;;;;;;;;;;;;13.18;63.64;95111.53;4993434;28;20377;-81
2021/05/23 02:40:38;;;;;;;;;;;;;;;13.19;63.85;95107.88;4999204;28;19956;-82
2021/05/23 02:43:04;;;;;;;;;;;;;;;13.21;63.23;95108.41;5034333;28;20026;-82
2021/05/23 02:45:29;;;;;;;;;;;;;;;13.21;63.27;95108.41;5015112;28;20133;-81
2021/05/23 02:47:54;;;;;;;;;;;;;;;13.12;63.73;95096.75;5034018;28;19928;-82
2021/05/23 02:50:21;;;;;;;;;;;;;;;13.10;63.46;95101.44;5031126;28;20363;-81
2021/05/23 02:52:46;;;;;;;;;;;;;;;13.10;63.88;95111.09;5031393;28;19921;-81
2021/05/23 02:55:12;;;;;;;;;;;;;;;13.13;63.42;95111.41;5034213;28;19921;-81
2021/05/23 02:57:37;;;;;;;;;;;;;;;13.16;63.15;95110.13;5033662;28;19932;-82
2021/05/23 03:00:06;;;;;;;;;;;;;;;13.19;63.17;95102.66;5092851;22;19932;-81
2021/05/23 03:02:32;;;;;;;;;;;;;;;13.17;63.23;95106.47;5036603;28;19925;-80
2021/05/23 03:04:57;;;;;;;;;;;;;;;13.26;62.84;95106.91;5052275;28;19979;-80
2021/05/23 03:07:22;;;;;;;;;;;;;;;13.33;62.92;95116.13;5019511;28;19972;-80
2021/05/23 03:09:48;;;;;;;;;;;;;;;13.37;62.88;95119.06;5037658;28;19943;-80
2021/05/23 03:12:13;;;;;;;;;;;;;;;13.41;62.78;95117.56;5023991;28;19916;-80
2021/05/23 03:14:41;;;;;;;;;;;;;;;13.45;62.73;95127.28;5030516;28;19944;-81
2021/05/23 03:17:07;;;;;;;;;;;;;;;13.51;62.22;95122.91;5033899;28;20004;-81
2021/05/23 03:19:33;;;;;;;;;;;;;;;13.56;62.34;95122.19;5094730;23;19929;-82
2021/05/23 03:21:58;;;;;;;;;;;;;;;13.62;62.31;95124.59;5021266;28;19921;-81
2021/05/23 03:24:23;;;;;;;;;;;;;;;13.68;61.82;95120.25;5096117;23;20345;-81
2021/05/23 03:26:49;;;;;;;;;;;;;;;13.73;61.78;95131.53;5005897;28;19984;-82
2021/05/23 03:29:14;;;;;;;;;;;;;;;13.81;61.30;95133.72;5024658;23;20332;-83
2021/05/23 03:31:39;;;;;;;;;;;;;;;13.86;61.20;95135.63;5025183;28;19972;-82
2021/05/23 03:34:04;;;;;;;;;;;;;;;13.90;61.22;95135.91;5006083;28;19921;-82
2021/05/23 03:36:30;;;;;;;;;;;;;;;13.94;61.30;95137.00;5027127;28;19974;-82
2021/05/23 03:38:55;;;;;;;;;;;;;;;14.00;61.21;95121.16;5026487;28;19920;-81
2021/05/23 03:41:20;;;;;;;;;;;;;;;14.06;61.23;95130.63;5025344;28;20417;-82
2021/05/23 03:43:45;;;;;;;;;;;;;;;14.12;60.71;95136.69;5044283;22;19948;-82
2021/05/23 03:46:11;;;;;;;;;;;;;;;14.20;61.11;95144.09;5033006;28;19983;-82
2021/05/23 03:48:36;;;;;;;;;;;;;;;14.26;60.92;95135.25;5034071;28;19925;-82
2021/05/23 03:53:35;;;;;;;;;;;;;;;14.35;60.94;95151.31;5027799;28;19988;-83
2021/05/23 03:56:00;;;;;;;;;;;;;;;14.46;60.52;95144.38;5030607;28;19925;-80
2021/05/23 03:58:25;;;;;;;;;;;;;;;14.66;60.10;95144.59;5018921;28;19935;-81
2021/05/23 04:00:50;;;;;;;;;;;;;;;15.24;58.93;95145.53;5016325;28;19921;-81
2021/05/23 04:03:16;;;;;;;;;;;;;;;17.29;52.93;95151.91;5013718;28;20550;-84
2021/05/23 04:05:41;;;;;;;;;;;;;;;19.42;46.63;95146.56;4986028;28;19921;-81
2021/05/23 04:08:07;;;;;;;;;;;;;;;21.45;41.06;95151.78;5025038;28;19929;-82
2021/05/23 04:10:46;;;;;;;;;;;;;;;23.34;37.56;95146.75;4989363;28;19988;-82
2021/05/23 04:13:12;;;;;;;;;;;;;;;25.14;34.33;95149.41;5032619;28;19925;-82
2021/05/23 04:15:37;;;;;;;;;;;;;;;26.56;31.68;95151.72;5010005;28;19925;-82
2021/05/23 04:18:02;;;;;;;;;;;;;;;27.89;29.90;95150.63;5000011;28;19909;-82
2021/05/23 04:20:28;;;;;;;;;;;;;;;29.23;27.06;95158.44;5046093;28;19952;-82
2021/05/23 04:22:53;;;;;;;;;;;;;;;30.46;24.55;95155.78;5051759;22;19925;-83
2021/05/23 04:25:19;;;;;;;;;;;;;;;31.69;23.50;95158.59;5033730;28;19925;-83
2021/05/23 04:27:45;;;;;;;;;;;;;;;32.78;22.26;95153.38;5031310;28;20317;-82
2021/05/23 04:30:10;;;;;;;;;;;;;;;33.84;20.63;95153.03;5033096;23;19936;-83
2021/05/23 04:32:36;;;;;;;;;;;;;;;34.44;19.93;95158.16;5052062;28;20246;-81
2021/05/23 04:35:01;;;;;;;;;;;;;;;34.20;19.96;95158.75;5048765;28;20023;-81
2021/05/23 04:37:27;;;;;;;;;;;;;;;34.02;20.09;95158.63;5045980;28;19921;-81
2021/05/23 04:39:52;;;;;;;;;;;;;;;34.37;19.31;95155.44;5027557;28;19928;-81
2021/05/23 04:42:17;;;;;;;;;;;;;;;35.17;18.95;95161.66;5046580;28;20398;-81
2021/05/23 04:44:42;;;;;;;;;;;;;;;35.99;18.05;95163.78;5049609;28;19921;-81
2021/05/23 04:47:08;;;;;;;;;;;;;;;36.94;16.61;95154.78;5036926;28;19925;-82
2021/05/23 04:49:38;;;;;;;;;;;;;;;37.93;15.57;95158.16;5059594;28;19921;-81
2021/05/23 04:54:33;;;;;;;;;;;;;;;39.79;14.68;95163.13;5107864;22;19929;-84
2021/05/23 04:56:58;;;;;;;;;;;;;;;40.70;13.85;95158.53;5048205;28;20358;-82
2021/05/23 04:59:24;;;;;;;;;;;;;;;41.14;13.36;95156.53;5076325;22;19936;-83
2021/05/23 05:01:49;;;;;;;;;;;;;;;41.69;12.45;95152.28;5026460;28;19964;-82
2021/05/23 05:04:14;;;;;;;;;;;;;;;42.38;12.23;95158.44;5093204;22;19919;-84
2021/05/23 05:06:39;;;;;;;;;;;;;;;43.12;11.53;95161.16;5046549;28;19960;-83
2021/05/23 05:09:05;;;;;;;;;;;;;;;43.90;11.55;95161.56;5028417;28;19928;-83
2021/05/23 05:11:30;;;;;;;;;;;;;;;44.32;10.86;95169.66;5030026;28;19991;-83
2021/05/23 05:13:55;;;;;;;;;;;;;;;44.73;10.60;95170.63;5012496;28;19960;-84
2021/05/23 05:16:21;;;;;;;;;;;;;;;45.24;10.10;95176.69;5028762;28;19929;-83
2021/05/23 05:18:46;;;;;;;;;;;;;;;45.50;9.98;95177.28;5035092;22;19932;-83
2021/05/23 05:21:11;;;;;;;;;;;;;;;45.62;10.17;95168.19;5039883;28;19930;-81
2021/05/23 05:23:36;;;;;;;;;;;;;;;46.41;9.86;95156.84;5006899;28;19921;-82
2021/05/23 05:26:03;;;;;;;;;;;;;;;47.18;9.14;95160.19;5012283;28;19948;-81
2021/05/23 05:28:28;;;;;;;;;;;;;;;47.78;8.81;95151.13;5026878;28;19921;-82
2021/05/23 05:30:53;;;;;;;;;;;;;;;48.01;8.70;95157.94;5025196;28;20317;-82
2021/05/23 05:33:19;;;;;;;;;;;;;;;48.03;8.58;95156.25;5024829;23;19925;-81
2021/05/23 05:35:44;;;;;;;;;;;;;;;48.35;8.42;95149.19;5034917;28;19925;-82
2021/05/23 05:38:11;;;;;;;;;;;;;;;49.07;8.13;95162.88;5034706;28;19921;-82
2021/05/23 05:40:37;;;;;;;;;;;;;;;48.93;7.79;95163.59;5017903;28;19925;-83
2021/05/23 05:43:02;;;;;;;;;;;;;;;48.87;7.85;95148.94;5016913;28;20015;-82
2021/05/23 05:45:28;;;;;;;;;;;;;;;49.28;7.76;95155.41;5016783;28;20003;-83
2021/05/23 05:47:53;;;;;;;;;;;;;;;49.53;7.70;95162.41;5016719;28;19925;-83
2021/05/23 05:50:18;;;;;;;;;;;;;;;49.46;7.74;95154.47;5017466;28;19925;-84
2021/05/23 05:52:44;;;;;;;;;;;;;;;48.78;7.54;95154.50;5035452;28;20004;-83
2021/05/23 05:55:09;;;;;;;;;;;;;;;48.55;7.78;95162.34;5035742;28;19984;-83
2021/05/23 05:57:36;;;;;;;;;;;;;;;48.29;8.22;95161.31;5034657;28;21597;-83
2021/05/23 06:00:01;;;;;;;;;;;;;;;48.48;8.08;95168.22;5061620;22;19935;-82
2021/05/23 06:02:27;;;;;;;;;;;;;;;48.17;8.33;95174.09;5043349;28;19922;-82
2021/05/23 06:04:52;;;;;;;;;;;;;;;47.97;7.88;95163.63;5048498;28;19921;-83
2021/05/23 06:07:18;;;;;;;;;;;;;;;47.29;8.46;95165.22;5031828;28;19945;-83
2021/05/23 06:09:52;;;;;;;;;;;;;;;46.36;8.96;95167.19;5054214;28;20308;-83
2021/05/23 06:12:18;;;;;;;;;;;;;;;45.24;10.16;95170.38;5027835;28;19921;-82
2021/05/23 06:15:07;;;;;;;;;;;;;;;44.03;10.99;95170.56;5223458;22;19996;-83
2021/05/23 06:17:32;;;;;;;;;;;;;;;42.65;11.88;95171.81;5042411;28;19921;-82
2021/05/23 06:20:04;;;;;;;;;;;;;;;41.37;12.20;95172.84;5047299;28;20385;-83
2021/05/23 06:22:29;;;;;;;;;;;;;;;40.34;13.19;95175.47;5029397;28;19928;-83
2021/05/23 06:24:54;;;;;;;;;;;;;;;39.57;14.13;95175.50;5029403;28;20443;-82
2021/05/23 06:27:19;;;;;;;;;;;;;;;39.40;14.39;95173.78;5028401;28;19917;-83
2021/05/23 06:29:45;;;;;;;;;;;;;;;39.62;13.89;95172.31;5046384;28;20016;-83
2021/05/23 06:32:13;;;;;;;;;;;;;;;38.95;14.22;95165.75;5045892;28;19921;-83
2021/05/23 06:34:38;;;;;;;;;;;;;;;38.78;15.09;95166.72;5025115;28;20576;-82
2021/05/23 06:37:04;;;;;;;;;;;;;;;38.62;14.85;95175.41;5047904;28;19932;-83
2021/05/23 06:39:29;;;;;;;;;;;;;;;37.65;15.79;95169.94;5025296;28;19921;-83
2021/05/23 06:41:54;;;;;;;;;;;;;;;37.11;15.93;95174.06;5099509;22;20068;-82
2021/05/23 06:44:20;;;;;;;;;;;;;;;36.29;16.90;95175.00;5077417;28;19935;-82
2021/05/23 06:46:45;;;;;;;;;;;;;;;35.94;17.23;95174.97;5089991;22;20460;-82
2021/05/23 06:49:10;;;;;;;;;;;;;;;35.28;17.87;95177.09;5041115;28;19935;-81
2021/05/23 06:51:36;;;;;;;;;;;;;;;34.99;18.01;95170.84;5041580;28;19928;-82
2021/05/23 06:54:01;;;;;;;;;;;;;;;34.46;18.50;95172.06;5025928;28;20359;-83
2021/05/23 06:56:26;;;;;;;;;;;;;;;34.06;19.23;95164.81;5044794;28;19920;-83
2021/05/23 06:58:51;;;;;;;;;;;;;;;33.66;18.85;95158.25;5009640;28;20238;-83
2021/05/23 07:01:17;;;;;;;;;;;;;;;33.51;19.73;95161.19;5022228;28;20008;-83
2021/05/23 07:03:42;;;;;;;;;;;;;;;33.35;19.47;95148.69;5029462;28;20388;-83
2021/05/23 07:06:08;;;;;;;;;;;;;;;33.16;19.83;95146.16;5024395;28;19976;-83
2021/05/23 07:08:33;;;;;;;;;;;;;;;33.07;19.53;95151.06;5011553;28;19925;-82
2021/05/23 07:10:58;;;;;;;;;;;;;;;32.96;20.48;95147.47;5043439;28;19925;-84
2021/05/23 07:13:25;;;;;;;;;;;;;;;32.61;21.06;95148.56;5011068;28;19924;-83
2021/05/23 07:15:51;;;;;;;;;;;;;;;32.44;20.45;95144.47;5025967;28;19925;-84
2021/05/23 07:18:19;;;;;;;;;;;;;;;32.23;20.52;95136.84;5028466;28;19920;-82
2021/05/23 07:20:45;;;;;;;;;;;;;;;32.30;21.31;95138.88;5026644;28;20397;-83
2021/05/23 07:23:13;;;;;;;;;;;;;;;32.21;20.92;95146.41;5044889;28;19971;-83
2021/05/23 07:25:38;;;;;;;;;;;;;;;32.12;21.45;95143.97;5024864;28;19921;-83
2021/05/23 07:28:03;;;;;;;;;;;;;;;32.20;21.20;95145.63;5029466;28;19939;-83
2021/05/23 07:30:41;;;;;;;;;;;;;;;32.29;21.11;95147.31;5062348;22;19924;-82
2021/05/23 07:33:06;;;;;;;;;;;;;;;32.24;20.98;95151.84;5058562;28;19925;-82
2021/05/23 07:35:31;;;;;;;;;;;;;;;32.24;20.82;95141.09;5047282;28;19946;-80
2021/05/23 07:37:56;;;;;;;;;;;;;;;32.23;20.81;95138.75;5046465;28;19921;-81
2021/05/23 07:40:22;;;;;;;;;;;;;;;32.08;21.05;95137.78;5027368;28;20450;-81
2021/05/23 07:42:47;;;;;;;;;;;;;;;32.05;20.84;95133.09;5106689;23;19925;-83
2021/05/23 07:45:48;;;;;;;;;;;;;;;32.08;21.32;95137.00;5047431;28;19929;-81
2021/05/23 07:48:26;;;;;;;;;;;;;;;31.94;21.40;95132.94;5011040;28;19932;-81
2021/05/23 07:50:51;;;;;;;;;;;;;;;31.86;21.19;95138.56;5047923;28;20055;-82
2021/05/23 07:53:16;;;;;;;;;;;;;;;31.67;21.37;95134.78;5029771;28;19964;-81
2021/05/23 07:56:06;;;;;;;;;;;;;;;31.54;22.04;95130.69;5047610;28;19936;-81
2021/05/23 07:58:32;;;;;;;;;;;;;;;31.43;22.23;95129.75;5030896;28;19920;-83
2021/05/23 08:00:57;;;;;;;;;;;;;;;31.21;22.08;95127.78;5011949;28;19943;-83
2021/05/23 08:03:23;;;;;;;;;;;;;;;31.16;23.06;95136.13;5048142;28;19968;-82
2021/05/23 08:05:51;;;;;;;;;;;;;;;31.05;22.81;95135.91;5069456;28;19928;-82
2021/05/23 08:08:16;;;;;;;;;;;;;;;30.89;23.10;95130.59;5054359;28;19929;-83
2021/05/23 08:10:41;;;;;;;;;;;;;;;30.56;23.78;95138.31;5048893;28;19921;-82
2021/05/23 08:13:07;;;;;;;;;;;;;;;30.43;24.23;95127.75;5050568;28;19921;-82
2021/05/23 08:15:32;;;;;;;;;;;;;;;30.32;25.12;95121.34;5050593;28;19952;-82
2021/05/23 08:17:58;;;;;;;;;;;;;;;30.09;25.32;95113.16;5014761;28;20417;-82
2021/05/23 08:20:24;;;;;;;;;;;;;;;29.81;25.60;95105.22;5014659;28;19921;-82
2021/05/23 08:22:49;;;;;;;;;;;;;;;29.57;25.63;95108.06;5030003;28;19968;-82
2021/05/23 08:25:14;;;;;;;;;;;;;;;29.37;25.89;95112.53;5028654;28;19921;-82
2021/05/23 08:27:40;;;;;;;;;;;;;;;29.34;25.95;95101.72;5045899;28;19917;-82
2021/05/23 08:30:08;;;;;;;;;;;;;;;29.34;25.60;95099.81;5009816;28;19921;-82
2021/05/23 08:32:34;;;;;;;;;;;;;;;29.01;26.70;95112.72;5026674;28;20372;-83
2021/05/23 08:34:59;;;;;;;;;;;;;;;28.59;27.22;95105.78;5027370;28;19927;-83
2021/05/23 08:37:24;;;;;;;;;;;;;;;28.57;27.69;95110.69;5028139;28;19921;-83
2021/05/23 08:39:57;;;;;;;;;;;;;;;28.53;27.48;95104.47;5036804;28;19916;-82
2021/05/23 08:42:22;;;;;;;;;;;;;;;28.43;27.57;95115.63;5062961;28;19921;-81
2021/05/23 08:44:48;;;;;;;;;;;;;;;28.45;27.69;95107.28;5041885;28;19984;-83
2021/05/23 08:47:14;;;;;;;;;;;;;;;28.46;27.79;95109.59;5030597;28;19925;-83
2021/05/23 08:49:39;;;;;;;;;;;;;;;28.50;27.95;95109.72;5030300;28;19925;-83
2021/05/23 08:52:04;;;;;;;;;;;;;;;28.48;27.27;95099.38;5028843;28;19927;-83
2021/05/23 08:54:30;;;;;;;;;;;;;;;28.52;27.95;95102.91;5356007;22;19963;-83
2021/05/23 08:56:55;;;;;;;;;;;;;;;28.58;27.17;95101.56;5026945;28;20344;-83
2021/05/23 08:59:20;;;;;;;;;;;;;;;28.58;27.50;95106.91;5006205;28;20012;-83
2021/05/23 09:01:46;;;;;;;;;;;;;;;28.60;28.36;95104.66;4982688;28;20310;-83
2021/05/23 09:04:15;;;;;;;;;;;;;;;28.61;27.25;95105.44;4987893;28;20423;-83
2021/05/23 09:06:43;;;;;;;;;;;;;;;28.55;27.80;95096.88;4992483;28;19933;-84
2021/05/23 09:09:09;;;;;;;;;;;;;;;28.52;27.82;95097.56;4990672;28;19932;-81
2021/05/23 09:11:34;;;;;;;;;;;;;;;28.40;28.20;95100.28;5005040;28;19922;-76
2021/05/23 09:14:00;;;;;;;;;;;;;;;27.98;28.32;95097.84;5006231;28;19926;-80
2021/05/23 09:16:25;;;;;;;;;;;;;;;27.97;27.78;95093.59;5060966;23;19924;-79
2021/05/23 09:18:51;;;;;;;;;;;;;;;27.90;28.42;95093.41;5062433;28;19927;-76
2021/05/23 09:21:17;;;;;;;;;;;;;;;27.52;29.26;95093.69;5064064;28;19920;-78
2021/05/23 09:23:46;;;;;;;;;;;;;;;27.61;29.46;95096.25;5047740;28;19970;-78
2021/05/23 09:26:15;;;;;;;;;;;;;;;27.64;28.87;95095.59;5062803;28;19920;-80
2021/05/23 09:28:40;;;;;;;;;;;;;;;27.51;28.50;95092.91;5048773;28;20591;-79
2021/05/23 09:31:13;;;;;;;;;;;;;;;27.45;28.54;95088.88;5049918;28;19924;-80
2021/05/23 09:33:42;;;;;;;;;;;;;;;27.40;28.98;95091.00;5063485;28;19928;-79
2021/05/23 09:36:07;;;;;;;;;;;;;;;27.43;28.72;95075.09;5047495;28;20016;-79
2021/05/23 09:38:32;;;;;;;;;;;;;;;27.38;28.99;95072.63;5048522;28;19960;-79
2021/05/23 09:40:58;;;;;;;;;;;;;;;27.47;29.19;95069.84;5048715;28;20063;-79
2021/05/23 09:43:23;;;;;;;;;;;;;;;27.56;28.48;95065.19;5049963;28;20396;-79
2021/05/23 09:45:52;;;;;;;;;;;;;;;27.54;28.28;95069.31;5031406;28;19920;-79
2021/05/23 09:48:19;;;;;;;;;;;;;;;27.56;28.11;95067.09;5065054;28;19932;-78
2021/05/23 09:50:44;;;;;;;;;;;;;;;27.46;27.88;95058.38;5066213;28;20043;-78
2021/05/23 09:53:19;;;;;;;;;;;;;;;27.36;28.07;95061.50;5049141;28;20449;-78
2021/05/23 09:55:51;;;;;;;;;;;;;;;27.33;27.61;95056.81;5064578;28;19984;-78
2021/05/23 09:58:20;;;;;;;;;;;;;;;27.32;27.54;95051.81;5029584;28;19920;-79
2021/05/23 10:00:45;;;;;;;;;;;;;;;27.33;28.53;95054.13;5089198;22;19958;-78
2021/05/23 10:03:19;;;;;;;;;;;;;;;27.23;27.40;95051.13;5052105;28;20404;-77
2021/05/23 10:05:48;;;;;;;;;;;;;;;27.18;27.63;95041.47;5036523;28;20450;-78
2021/05/23 10:08:14;;;;;;;;;;;;;;;27.14;26.95;95040.53;5031682;28;19917;-78
2021/05/23 10:10:39;;;;;;;;;;;;;;;27.15;27.68;95036.75;5049108;28;19932;-78
2021/05/23 10:13:04;;;;;;;;;;;;;;;27.12;27.16;95037.44;5054700;28;19921;-78
2021/05/23 10:15:30;;;;;;;;;;;;;;;26.85;27.40;95028.13;5047212;28;19988;-79
2021/05/23 10:17:58;;;;;;;;;;;;;;;26.88;27.39;95028.25;5047789;28;20407;-78
2021/05/23 10:20:25;;;;;;;;;;;;;;;26.91;27.75;95024.91;5030214;28;19925;-79
2021/05/23 10:22:50;;;;;;;;;;;;;;;26.96;28.37;95028.47;5027151;28;19921;-79
2021/05/23 10:25:16;;;;;;;;;;;;;;;26.82;28.00;95016.19;5010726;28;19928;-79
2021/05/23 10:27:41;;;;;;;;;;;;;;;26.84;28.60;95011.31;5027300;28;19921;-78
2021/05/23 10:30:07;;;;;;;;;;;;;;;26.79;28.49;95013.41;5025130;28;19927;-79
2021/05/23 10:32:33;;;;;;;;;;;;;;;26.73;28.87;95010.19;5052169;22;19949;-78
2021/05/23 10:35:08;;;;;;;;;;;;;;;26.71;28.46;95003.63;5041953;28;19968;-78
2021/05/23 10:37:36;;;;;;;;;;;;;;;26.57;28.87;94998.56;5046619;28;20503;-78
2021/05/23 10:40:02;;;;;;;;;;;;;;;26.52;28.86;94998.75;5034479;28;19933;-77
2021/05/23 10:42:28;;;;;;;;;;;;;;;26.61;29.54;95002.13;5051944;28;19924;-78
2021/05/23 10:44:54;;;;;;;;;;;;;;;26.64;28.83;94998.81;5015932;28;19921;-77
2021/05/23 10:47:29;;;;;;;;;;;;;;;26.63;28.77;94999.91;5051755;28;19927;-78
2021/05/23 10:49:55;;;;;;;;;;;;;;;26.46;28.62;95000.06;5063116;28;20382;-78
2021/05/23 10:52:20;;;;;;;;;;;;;;;26.30;28.98;94997.97;5050216;28;19925;-78
2021/05/23 10:55:03;;;;;;;;;;;;;;;26.39;28.74;94989.19;5053111;28;20524;-78
2021/05/23 10:58:10;;;;;;;;;;;;;;;26.51;29.15;94981.97;5051971;28;19972;-78
2021/05/23 11:00:36;;;;;;;;;;;;;;;26.61;27.43;94986.13;5005983;28;20002;-78
2021/05/23 11:03:14;;;;;;;;;;;;;;;26.49;28.81;94989.53;5050852;28;19999;-78
2021/05/23 11:05:39;;;;;;;;;;;;;;;26.53;29.27;94979.00;5049816;22;20424;-78
2021/05/23 11:08:05;;;;;;;;;;;;;;;26.58;28.99;94970.78;5043782;28;19971;-77
2021/05/23 11:10:32;;;;;;;;;;;;;;;26.50;29.28;94980.41;5045369;28;19927;-78
2021/05/23 11:13:00;;;;;;;;;;;;;;;26.51;29.13;94971.31;5028516;28;20418;-77
2021/05/23 11:15:25;;;;;;;;;;;;;;;26.53;28.65;94971.00;5006880;28;19925;-78
2021/05/23 11:17:51;;;;;;;;;;;;;;;26.37;28.96;94972.72;5005629;28;19925;-78
2021/05/23 11:20:17;;;;;;;;;;;;;;;26.39;29.75;94957.97;5020505;28;19921;-78
2021/05/23 11:22:45;;;;;;;;;;;;;;;26.34;29.78;94961.56;5039589;28;19928;-78
2021/05/23 11:25:11;;;;;;;;;;;;;;;26.38;29.88;94955.63;5078764;22;19963;-78
2021/05/23 11:27:42;;;;;;;;;;;;;;;26.33;29.45;94949.34;5022259;28;20389;-78
2021/05/23 11:30:11;;;;;;;;;;;;;;;26.33;28.87;94948.56;5061573;23;19999;-78
2021/05/23 11:32:37;;;;;;;;;;;;;;;26.21;29.54;94941.31;5039417;28;20145;-78
2021/05/23 11:35:02;;;;;;;;;;;;;;;26.30;29.84;94942.00;5038605;28;19936;-78
2021/05/23 11:37:37;;;;;;;;;;;;;;;26.44;29.03;94933.75;5022664;28;19922;-78
2021/05/23 11:40:10;;;;;;;;;;;;;;;26.48;28.16;94934.63;5037432;28;20304;-78
2021/05/23 11:42:44;;;;;;;;;;;;;;;26.48;27.54;94928.53;5040552;28;19920;-78
2021/05/23 11:45:22;;;;;;;;;;;;;;;26.44;27.95;94925.75;5039536;28;19925;-77
2021/05/23 11:47:51;;;;;;;;;;;;;;;26.48;27.25;94923.97;5038927;28;20335;-79
2021/05/23 11:50:23;;;;;;;;;;;;;;;26.52;27.24;94916.88;5024187;28;19987;-77
2021/05/23 11:52:56;;;;;;;;;;;;;;;26.53;28.04;94917.66;5021573;28;19925;-78
2021/05/23 11:55:21;;;;;;;;;;;;;;;26.56;27.83;94909.00;5049464;28;19921;-78
2021/05/23 11:57:51;;;;;;;;;;;;;;;26.56;28.61;94909.78;5065776;28;19928;-77
2021/05/23 12:00:22;;;;;;;;;;;;;;;26.62;28.09;94903.09;5009811;28;19928;-78
2021/05/23 12:02:54;;;;;;;;;;;;;;;26.63;28.79;94906.56;5040466;28;20004;-78
2021/05/23 12:05:21;;;;;;;;;;;;;;;26.68;27.80;94902.88;5026885;28;19920;-79
2021/05/23 12:07:46;;;;;;;;;;;;;;;26.68;27.00;94906.34;5030486;28;19932;-77
2021/05/23 12:10:11;;;;;;;;;;;;;;;26.71;27.24;94904.91;5035855;28;19925;-77
2021/05/23 12:12:36;;;;;;;;;;;;;;;26.63;28.18;94901.22;5030998;28;19935;-78
2021/05/23 12:15:02;;;;;;;;;;;;;;;26.58;28.67;94899.56;5032949;28;19924;-77
2021/05/23 12:17:27;;;;;;;;;;;;;;;26.68;28.45;94889.56;5050684;28;19928;-77
2021/05/23 12:19:56;;;;;;;;;;;;;;;26.68;28.39;94879.66;5047975;28;19932;-78
2021/05/23 12:22:22;;;;;;;;;;;;;;;26.77;28.58;94877.69;5024809;28;19925;-78
2021/05/23 12:24:47;;;;;;;;;;;;;;;26.86;28.13;94873.03;5040811;28;19921;-78
2021/05/23 12:27:26;;;;;;;;;;;;;;;26.91;27.22;94867.47;5005432;28;19921;-78
2021/05/23 12:29:52;;;;;;;;;;;;;;;26.85;27.55;94871.47;5022429;28;19921;-78
2021/05/23 12:32:18;;;;;;;;;;;;;;;26.82;28.30;94869.44;5024802;28;19956;-86
2021/05/23 12:34:43;;;;;;;;;;;;;;;26.86;29.13;94853.56;5018556;28;19932;-86
2021/05/23 12:37:08;;;;;;;;;;;;;;;26.79;29.50;94856.78;5041060;28;19964;-84
2021/05/23 12:39:34;;;;;;;;;;;;;;;26.82;29.05;94852.66;5048440;28;19928;-83
2021/05/23 12:42:01;;;;;;;;;;;;;;;26.74;30.24;94843.66;5059404;28;19921;-87
2021/05/23 12:44:28;;;;;;;;;;;;;;;26.69;29.75;94853.78;5031375;28;19928;-85
2021/05/23 12:46:53;;;;;;;;;;;;;;;26.58;28.99;94842.78;5010503;28;19952;-84
2021/05/23 12:49:19;;;;;;;;;;;;;;;26.61;30.60;94844.75;5029186;28;19921;-84
2021/05/23 12:51:45;;;;;;;;;;;;;;;26.56;30.45;94843.09;5011873;28;19924;-85
2021/05/23 12:54:10;;;;;;;;;;;;;;;26.52;31.12;94839.56;5029833;28;19920;-84
2021/05/23 12:56:36;;;;;;;;;;;;;;;26.46;29.68;94842.75;5027807;28;20399;-84
2021/05/23 12:59:01;;;;;;;;;;;;;;;26.45;29.08;94843.84;5049539;28;20369;-85
2021/05/23 13:01:27;;;;;;;;;;;;;;;26.41;30.56;94837.63;5047194;28;20298;-86